createdAt,value
2023-01-17T00:00:10.017Z,45.80
2023-01-17T00:02:38.026Z,46.00
2023-01-17T00:05:25.975Z,46.13
2023-01-17T00:08:11.303Z,45.96
2023-01-17T00:10:41.845Z,45.83
2023-01-17T00:13:09.923Z,45.62
2023-01-17T00:15:40.040Z,45.57
2023-01-17T00:18:08.229Z,45.07
2023-01-17T00:20:55.478Z,45.54
2023-01-17T00:23:42.612Z,45.33
2023-01-17T00:26:14.375Z,45.41
2023-01-17T00:28:42.562Z,45.32
2023-01-17T00:31:11.030Z,44.87
2023-01-17T00:33:37.766Z,45.23
2023-01-17T00:36:07.866Z,44.76
2023-01-17T00:38:37.556Z,44.64
2023-01-17T00:41:06.291Z,44.90
2023-01-17T00:43:52.107Z,44.67
2023-01-17T00:46:38.140Z,44.99
2023-01-17T00:49:23.957Z,44.45
2023-01-17T00:52:10.701Z,44.43
2023-01-17T00:54:55.754Z,44.15
2023-01-17T00:57:41.153Z,44.18
2023-01-17T01:00:27.754Z,44.27
2023-01-17T01:03:13.622Z,44.31
2023-01-17T01:05:58.728Z,44.33
2023-01-17T01:08:47.686Z,44.21
2023-01-17T01:11:34.778Z,44.40
2023-01-17T01:14:20.504Z,44.01
2023-01-17T01:17:05.623Z,44.04
2023-01-17T01:19:51.102Z,44.20
2023-01-17T01:22:36.181Z,44.42
2023-01-17T01:25:23.675Z,43.93
2023-01-17T01:28:09.039Z,44.19
2023-01-17T01:30:54.409Z,44.09
2023-01-17T01:33:21.181Z,44.02
2023-01-17T01:35:51.360Z,43.98
2023-01-17T01:38:19.960Z,43.89
2023-01-17T01:40:51.891Z,44.04
2023-01-17T01:43:21.810Z,44.30
2023-01-17T01:45:54.220Z,43.96
2023-01-17T01:48:38.843Z,43.85
2023-01-17T01:51:11.297Z,44.31
2023-01-17T01:53:44.199Z,43.89
2023-01-17T01:56:15.370Z,43.85
2023-01-17T01:58:47.019Z,44.01
2023-01-17T02:01:16.076Z,43.95
2023-01-17T02:03:44.794Z,43.99
2023-01-17T02:06:35.511Z,44.15
2023-01-17T02:09:07.160Z,43.95
2023-01-17T02:11:38.959Z,43.80
2023-01-17T02:14:07.078Z,43.84
2023-01-17T02:16:51.467Z,43.74
2023-01-17T02:19:58.323Z,43.75
2023-01-17T02:22:54.812Z,43.66
2023-01-17T02:25:50.545Z,43.68
2023-01-17T02:28:36.216Z,43.80
2023-01-17T02:31:10.995Z,43.89
2023-01-17T02:33:43.764Z,43.93
2023-01-17T02:36:20.467Z,43.89
2023-01-17T02:38:54.039Z,44.19
2023-01-17T02:41:24.711Z,43.97
2023-01-17T02:43:56.167Z,43.90
2023-01-17T02:46:26.039Z,44.06
2023-01-17T02:48:55.441Z,43.85
2023-01-17T02:51:48.787Z,44.13
2023-01-17T02:54:54.682Z,44.19
2023-01-17T02:57:42.707Z,43.94
2023-01-17T03:00:19.806Z,43.97
2023-01-17T03:02:59.417Z,43.89
2023-01-17T03:05:34.128Z,43.91
2023-01-17T03:08:03.574Z,43.81
2023-01-17T03:10:34.283Z,44.05
2023-01-17T03:13:04.249Z,43.96
2023-01-17T03:15:32.824Z,44.27
2023-01-17T03:18:06.351Z,44.16
2023-01-17T03:20:34.391Z,44.10
2023-01-17T03:23:02.533Z,44.21
2023-01-17T03:25:30.559Z,44.11
2023-01-17T03:27:58.420Z,44.13
2023-01-17T03:30:26.525Z,44.17
2023-01-17T03:32:54.471Z,44.20
2023-01-17T03:35:23.904Z,44.27
2023-01-17T03:37:51.886Z,44.32
2023-01-17T03:40:20.256Z,44.29
2023-01-17T03:42:48.670Z,44.13
2023-01-17T03:45:16.813Z,44.42
2023-01-17T03:47:44.768Z,44.20
2023-01-17T03:50:13.680Z,44.42
2023-01-17T03:52:43.186Z,44.27
2023-01-17T03:55:11.885Z,44.42
2023-01-17T03:57:39.829Z,44.18
2023-01-17T04:00:09.199Z,44.40
2023-01-17T04:02:37.175Z,44.47
2023-01-17T04:05:05.603Z,44.44
2023-01-17T04:07:33.576Z,44.66
2023-01-17T04:10:03.047Z,44.35
2023-01-17T04:12:30.909Z,44.82
2023-01-17T04:14:58.921Z,44.61
2023-01-17T04:17:27.090Z,44.80
2023-01-17T04:19:55.357Z,45.03
2023-01-17T04:22:23.334Z,45.01
2023-01-17T04:24:51.258Z,45.03
2023-01-17T04:27:20.655Z,45.07
2023-01-17T04:29:48.573Z,44.98
2023-01-17T04:32:16.673Z,44.97
2023-01-17T04:34:44.584Z,45.02
2023-01-17T04:37:12.545Z,45.28
2023-01-17T04:39:40.562Z,45.12
2023-01-17T04:42:08.707Z,45.15
2023-01-17T04:44:38.217Z,45.20
2023-01-17T04:47:06.413Z,45.19
2023-01-17T04:49:34.468Z,44.99
2023-01-17T04:52:02.441Z,45.27
2023-01-17T04:54:30.287Z,44.60
2023-01-17T04:56:58.288Z,44.80
2023-01-17T04:59:26.330Z,44.67
2023-01-17T05:01:55.981Z,44.90
2023-01-17T05:04:24.112Z,44.97
2023-01-17T05:06:52.210Z,44.80
2023-01-17T05:09:20.351Z,44.97
2023-01-17T05:11:48.264Z,44.59
2023-01-17T05:14:16.258Z,44.76
2023-01-17T05:16:44.267Z,45.35
2023-01-17T05:19:16.467Z,45.39
2023-01-17T05:21:44.421Z,45.13
2023-01-17T05:24:12.292Z,45.14
2023-01-17T05:26:41.016Z,45.20
2023-01-17T05:29:09.219Z,45.35
2023-01-17T05:31:37.402Z,45.31
2023-01-17T05:34:05.818Z,45.65
2023-01-17T05:36:35.384Z,45.46
2023-01-17T05:39:03.373Z,45.20
2023-01-17T05:41:31.766Z,45.54
2023-01-17T05:43:59.770Z,45.34
2023-01-17T05:46:27.791Z,45.82
2023-01-17T05:48:55.769Z,45.40
2023-01-17T05:51:23.949Z,45.59
2023-01-17T05:53:53.538Z,45.80
2023-01-17T05:56:21.477Z,45.61
2023-01-17T05:58:49.449Z,46.02
2023-01-17T06:01:17.763Z,45.77
2023-01-17T06:03:45.717Z,45.78
2023-01-17T06:06:13.674Z,45.97
2023-01-17T06:08:41.612Z,46.09
2023-01-17T06:11:11.116Z,45.99
2023-01-17T06:13:39.033Z,46.23
2023-01-17T06:16:07.514Z,46.07
2023-01-17T06:18:36.846Z,46.05
2023-01-17T06:21:04.827Z,46.22
2023-01-17T06:23:33.234Z,46.26
2023-01-17T06:26:04.877Z,46.08
2023-01-17T06:28:34.506Z,46.36
2023-01-17T06:31:08.039Z,46.30
2023-01-17T06:33:36.078Z,46.34
2023-01-17T06:36:04.392Z,46.43
2023-01-17T06:38:32.627Z,46.43
2023-01-17T06:41:00.679Z,46.50
2023-01-17T06:43:32.660Z,46.52
2023-01-17T06:46:02.547Z,46.39
2023-01-17T06:48:30.633Z,46.31
2023-01-17T06:50:58.983Z,46.18
2023-01-17T06:53:27.123Z,46.68
2023-01-17T06:55:57.660Z,46.58
2023-01-17T06:58:25.627Z,46.53
2023-01-17T07:00:53.772Z,46.20
2023-01-17T07:03:25.531Z,46.38
2023-01-17T07:05:54.318Z,46.62
2023-01-17T07:08:22.342Z,46.45
2023-01-17T07:10:50.445Z,46.61
2023-01-17T07:13:18.424Z,46.30
2023-01-17T07:15:46.350Z,46.44
2023-01-17T07:18:14.771Z,46.73
2023-01-17T07:20:45.678Z,46.60
2023-01-17T07:23:13.850Z,46.42
2023-01-17T07:25:41.903Z,46.38
2023-01-17T07:28:10.392Z,46.57
2023-01-17T07:30:38.477Z,46.56
2023-01-17T07:33:06.498Z,46.55
2023-01-17T07:35:34.411Z,46.46
2023-01-17T07:38:05.969Z,46.72
2023-01-17T07:40:41.524Z,46.42
2023-01-17T07:43:14.288Z,46.90
2023-01-17T07:45:44.272Z,46.13
2023-01-17T07:48:13.304Z,46.83
2023-01-17T07:50:41.532Z,46.47
2023-01-17T07:53:11.599Z,46.70
2023-01-17T07:55:39.610Z,46.53
2023-01-17T07:58:07.746Z,46.78
2023-01-17T08:00:35.938Z,46.79
2023-01-17T08:03:04.061Z,46.39
2023-01-17T08:05:32.159Z,46.41
2023-01-17T08:08:00.062Z,46.66
2023-01-17T08:10:29.450Z,46.65
2023-01-17T08:12:57.369Z,47.07
2023-01-17T08:15:26.667Z,46.65
2023-01-17T08:17:54.629Z,46.49
2023-01-17T08:20:23.768Z,46.53
2023-01-17T08:22:55.106Z,47.08
2023-01-17T08:25:24.090Z,46.56
2023-01-17T08:27:58.286Z,46.68
2023-01-17T08:30:27.488Z,46.68
2023-01-17T08:32:55.690Z,46.62
2023-01-17T08:35:24.194Z,46.70
2023-01-17T08:37:56.567Z,46.87
2023-01-17T08:40:24.740Z,47.10
2023-01-17T08:42:58.184Z,46.67
2023-01-17T08:45:26.428Z,46.77
2023-01-17T08:47:54.885Z,46.85
2023-01-17T08:50:22.817Z,46.79
2023-01-17T08:52:53.339Z,47.07
2023-01-17T08:55:21.730Z,46.90
2023-01-17T08:57:49.848Z,46.86
2023-01-17T09:00:20.877Z,47.19
2023-01-17T09:02:48.795Z,47.25
2023-01-17T09:05:16.890Z,47.24
2023-01-17T09:07:44.772Z,47.13
2023-01-17T09:10:12.922Z,46.71
2023-01-17T09:12:40.895Z,46.93
2023-01-17T09:15:09.895Z,47.20
2023-01-17T09:17:39.283Z,47.25
2023-01-17T09:20:08.846Z,47.07
2023-01-17T09:22:37.800Z,47.38
2023-01-17T09:25:07.127Z,47.29
2023-01-17T09:27:35.238Z,47.04
2023-01-17T09:30:03.204Z,47.28
2023-01-17T09:32:31.247Z,47.11
2023-01-17T09:35:00.810Z,47.21
2023-01-17T09:37:28.870Z,47.13
2023-01-17T09:39:57.056Z,46.66
2023-01-17T09:42:33.473Z,47.45
2023-01-17T09:45:02.491Z,47.44
2023-01-17T09:47:37.457Z,47.16
2023-01-17T09:50:21.671Z,47.33
2023-01-17T09:52:50.023Z,47.11
2023-01-17T09:55:18.962Z,47.29
2023-01-17T09:57:58.159Z,47.47
2023-01-17T10:00:37.615Z,47.25
2023-01-17T10:03:24.997Z,47.22
2023-01-17T10:06:02.793Z,47.34
2023-01-17T10:08:46.199Z,47.27
2023-01-17T10:11:35.011Z,47.41
2023-01-17T10:14:21.407Z,47.19
2023-01-17T10:16:56.306Z,47.56
2023-01-17T10:19:37.613Z,47.45
2023-01-17T10:22:25.773Z,47.52
2023-01-17T10:25:18.811Z,47.41
2023-01-17T10:27:52.638Z,47.44
2023-01-17T10:30:25.138Z,47.60
2023-01-17T10:32:53.053Z,47.46
2023-01-17T10:35:25.017Z,47.46
2023-01-17T10:37:58.269Z,47.46
2023-01-17T10:40:33.922Z,47.57
2023-01-17T10:43:05.860Z,47.34
2023-01-17T10:45:41.318Z,47.44
2023-01-17T10:48:16.798Z,47.58
2023-01-17T10:50:52.946Z,47.38
2023-01-17T10:53:40.010Z,47.35
2023-01-17T10:56:09.167Z,47.25
2023-01-17T10:58:38.593Z,47.25
2023-01-17T11:01:16.709Z,47.19
2023-01-17T11:03:46.548Z,47.16
2023-01-17T11:06:20.007Z,47.33
2023-01-17T11:08:54.912Z,47.50
2023-01-17T11:11:30.143Z,47.11
2023-01-17T11:13:59.755Z,47.00
2023-01-17T11:16:31.580Z,47.16
2023-01-17T11:19:09.633Z,46.87
2023-01-17T11:21:41.034Z,46.76
2023-01-17T11:24:21.383Z,46.55
2023-01-17T11:26:50.658Z,46.77
2023-01-17T11:29:31.758Z,46.05
2023-01-17T11:32:28.986Z,46.13
2023-01-17T11:35:17.617Z,45.97
2023-01-17T11:37:50.704Z,45.79
2023-01-17T11:40:26.558Z,45.36
2023-01-17T11:43:06.735Z,44.76
2023-01-17T11:45:35.996Z,44.38
2023-01-17T11:48:13.518Z,44.00
2023-01-17T11:50:43.252Z,43.48
2023-01-17T11:53:22.756Z,43.22
2023-01-17T11:55:57.758Z,43.11
2023-01-17T11:58:27.784Z,43.13
2023-01-17T12:01:02.204Z,43.36
2023-01-17T12:03:48.260Z,42.65
2023-01-17T12:06:23.249Z,42.86
2023-01-17T12:09:06.020Z,42.59
2023-01-17T12:12:07.032Z,42.58
2023-01-17T12:14:44.020Z,42.49
2023-01-17T12:17:24.372Z,42.95
2023-01-17T12:20:01.625Z,42.63
2023-01-17T12:22:46.194Z,42.13
2023-01-17T12:25:25.707Z,41.91
2023-01-17T12:28:08.989Z,41.80
2023-01-17T12:30:47.820Z,41.81
2023-01-17T12:33:22.666Z,41.57
2023-01-17T12:35:55.006Z,41.58
2023-01-17T12:38:32.947Z,41.32
2023-01-17T12:41:07.457Z,41.11
2023-01-17T12:43:40.978Z,40.78
2023-01-17T12:46:17.217Z,40.50
2023-01-17T12:48:46.328Z,40.50
2023-01-17T12:51:19.740Z,40.71
2023-01-17T12:53:58.130Z,40.43
2023-01-17T12:56:32.694Z,39.97
2023-01-17T12:59:14.091Z,39.94
2023-01-17T13:01:45.755Z,39.00
2023-01-17T13:04:23.276Z,38.55
2023-01-17T13:07:02.126Z,38.48
2023-01-17T13:09:36.241Z,38.23
2023-01-17T13:12:07.435Z,37.92
2023-01-17T13:14:36.972Z,38.43
2023-01-17T13:17:14.208Z,38.53
2023-01-17T13:19:50.277Z,38.95
2023-01-17T13:22:21.861Z,38.56
2023-01-17T13:24:56.153Z,37.86
2023-01-17T13:28:02.751Z,38.18
2023-01-17T13:30:46.901Z,38.27
2023-01-17T13:33:31.400Z,37.96
2023-01-17T13:36:10.775Z,38.54
2023-01-17T13:39:05.896Z,38.56
2023-01-17T13:41:45.549Z,38.39
2023-01-17T13:44:24.877Z,38.07
2023-01-17T13:47:04.192Z,38.34
2023-01-17T13:49:44.245Z,37.62
2023-01-17T13:52:30.996Z,37.74
2023-01-17T13:55:01.943Z,37.29
2023-01-17T13:57:42.236Z,37.50
2023-01-17T14:00:51.685Z,37.55
2023-01-17T14:03:52.894Z,37.14
2023-01-17T14:06:36.794Z,36.08
2023-01-17T14:09:12.406Z,35.55
2023-01-17T14:11:53.192Z,35.54
2023-01-17T14:14:38.663Z,35.55
2023-01-17T14:17:49.482Z,35.59
2023-01-17T14:20:52.833Z,36.09
2023-01-17T14:23:42.269Z,36.17
2023-01-17T14:26:31.036Z,36.20
2023-01-17T14:29:00.907Z,36.29
2023-01-17T14:31:30.904Z,36.64
2023-01-17T14:34:13.250Z,37.00
2023-01-17T14:36:41.429Z,37.32
2023-01-17T14:39:25.268Z,37.59
2023-01-17T14:41:53.467Z,37.83
2023-01-17T14:44:22.011Z,37.36
2023-01-17T14:46:50.580Z,37.25
2023-01-17T14:49:25.352Z,37.29
2023-01-17T14:52:01.137Z,38.78
2023-01-17T14:54:30.952Z,39.80
2023-01-17T14:57:26.263Z,38.36
2023-01-17T15:00:10.484Z,37.26
2023-01-17T15:02:43.322Z,36.20
2023-01-17T15:05:15.472Z,35.59
2023-01-17T15:07:45.969Z,36.07
2023-01-17T15:10:17.763Z,35.24
2023-01-17T15:12:47.850Z,35.41
2023-01-17T15:15:32.260Z,35.49
2023-01-17T15:18:11.466Z,35.11
2023-01-17T15:20:40.531Z,35.82
2023-01-17T15:23:16.146Z,36.17
2023-01-17T15:25:46.460Z,36.22
2023-01-17T15:28:15.240Z,36.44
2023-01-17T15:31:01.785Z,36.70
2023-01-17T15:33:32.173Z,36.92
2023-01-17T15:36:01.642Z,36.80
2023-01-17T15:38:38.261Z,36.98
2023-01-17T15:41:12.795Z,36.58
2023-01-17T15:43:42.306Z,36.85
2023-01-17T15:46:23.795Z,37.40
2023-01-17T15:48:51.931Z,37.74
2023-01-17T15:51:34.447Z,38.21
2023-01-17T15:54:26.546Z,38.61
2023-01-17T15:57:24.949Z,39.04
2023-01-17T15:59:56.150Z,39.39
2023-01-17T16:02:35.501Z,40.61
2023-01-17T16:05:24.469Z,41.52
2023-01-17T16:07:53.734Z,42.28
2023-01-17T16:10:23.152Z,43.09
2023-01-17T16:12:56.354Z,43.13
2023-01-17T16:15:25.149Z,43.60
2023-01-17T16:17:57.661Z,43.67
2023-01-17T16:20:30.744Z,44.13
2023-01-17T16:23:00.361Z,44.29
2023-01-17T16:25:32.447Z,44.50
2023-01-17T16:28:02.525Z,44.53
2023-01-17T16:30:31.255Z,44.88
2023-01-17T16:32:59.704Z,45.20
2023-01-17T16:35:30.170Z,45.10
2023-01-17T16:37:59.836Z,45.43
2023-01-17T16:40:30.431Z,45.50
2023-01-17T16:42:59.703Z,45.55
2023-01-17T16:45:30.164Z,45.60
2023-01-17T16:47:58.009Z,45.59
2023-01-17T16:50:26.426Z,45.83
2023-01-17T16:52:56.286Z,45.93
2023-01-17T16:55:25.799Z,45.91
2023-01-17T16:57:57.391Z,45.96
2023-01-17T17:00:26.850Z,46.13
2023-01-17T17:02:56.278Z,46.13
2023-01-17T17:05:24.296Z,46.39
2023-01-17T17:07:53.192Z,46.29
2023-01-17T17:10:25.107Z,46.42
2023-01-17T17:12:53.341Z,46.53
2023-01-17T17:15:21.580Z,46.74
2023-01-17T17:17:49.949Z,46.97
2023-01-17T17:20:19.600Z,47.07
2023-01-17T17:22:51.558Z,47.13
2023-01-17T17:25:20.223Z,46.95
2023-01-17T17:27:48.215Z,47.49
2023-01-17T17:30:16.668Z,47.41
2023-01-17T17:32:46.989Z,47.55
2023-01-17T17:35:15.114Z,47.07
2023-01-17T17:37:44.563Z,47.43
2023-01-17T17:40:12.968Z,47.21
2023-01-17T17:42:40.985Z,47.36
2023-01-17T17:45:10.050Z,47.36
2023-01-17T17:47:37.999Z,47.31
2023-01-17T17:50:06.670Z,47.44
2023-01-17T17:52:34.726Z,47.45
2023-01-17T17:55:04.179Z,47.38
2023-01-17T17:57:32.071Z,47.17
2023-01-17T18:00:00.127Z,46.88
2023-01-17T18:02:28.034Z,46.78
2023-01-17T18:04:56.055Z,46.79
2023-01-17T18:07:24.141Z,45.91
2023-01-17T18:09:52.200Z,45.92
2023-01-17T18:12:21.649Z,45.50
2023-01-17T18:14:49.508Z,45.09
2023-01-17T18:17:20.349Z,45.05
2023-01-17T18:19:48.534Z,44.79
2023-01-17T18:22:16.549Z,44.68
2023-01-17T18:24:44.480Z,44.33
2023-01-17T18:27:12.421Z,43.96
2023-01-17T18:29:42.080Z,43.70
2023-01-17T18:32:10.050Z,43.53
2023-01-17T18:34:41.497Z,43.17
2023-01-17T18:37:10.096Z,43.47
2023-01-17T18:39:38.012Z,43.13
2023-01-17T18:42:06.323Z,42.35
2023-01-17T18:44:34.333Z,42.02
2023-01-17T18:47:04.837Z,42.25
2023-01-17T18:49:33.910Z,41.96
2023-01-17T18:52:02.372Z,41.85
2023-01-17T18:54:31.967Z,41.71
2023-01-17T18:56:59.939Z,41.19
2023-01-17T18:59:28.299Z,41.18
2023-01-17T19:01:56.899Z,40.80
2023-01-17T19:04:28.415Z,40.74
2023-01-17T19:06:56.905Z,40.75
2023-01-17T19:09:24.981Z,40.75
2023-01-17T19:11:52.920Z,41.23
2023-01-17T19:14:20.952Z,41.34
2023-01-17T19:16:49.023Z,41.36
2023-01-17T19:19:17.227Z,41.62
2023-01-17T19:21:46.738Z,41.24
2023-01-17T19:24:14.828Z,41.39
2023-01-17T19:26:43.275Z,41.37
2023-01-17T19:29:12.183Z,41.41
2023-01-17T19:31:43.348Z,41.54
2023-01-17T19:34:13.891Z,41.46
2023-01-17T19:36:42.091Z,41.34
2023-01-17T19:39:11.993Z,41.24
2023-01-17T19:41:44.809Z,41.47
2023-01-17T19:44:14.963Z,41.83
2023-01-17T19:46:43.895Z,41.58
2023-01-17T19:49:11.924Z,42.21
2023-01-17T19:51:40.553Z,42.53
2023-01-17T19:54:09.092Z,42.22
2023-01-17T19:56:38.858Z,42.19
2023-01-17T19:59:07.201Z,42.07
2023-01-17T20:01:36.432Z,41.88
2023-01-17T20:04:05.108Z,42.16
2023-01-17T20:06:35.242Z,42.33
2023-01-17T20:09:04.258Z,42.78
2023-01-17T20:11:32.289Z,42.58
2023-01-17T20:14:02.081Z,42.48
2023-01-17T20:16:31.584Z,41.91
2023-01-17T20:19:02.557Z,40.92
2023-01-17T20:21:32.293Z,40.81
2023-01-17T20:24:03.492Z,40.76
2023-01-17T20:26:36.183Z,40.87
2023-01-17T20:29:10.260Z,41.00
2023-01-17T20:31:39.428Z,40.47
2023-01-17T20:34:10.053Z,39.98
2023-01-17T20:36:39.693Z,39.92
2023-01-17T20:39:11.070Z,40.19
2023-01-17T20:41:40.384Z,39.82
2023-01-17T20:44:15.230Z,39.60
2023-01-17T20:46:43.935Z,39.47
2023-01-17T20:49:14.863Z,39.77
2023-01-17T20:51:44.734Z,39.95
2023-01-17T20:54:14.551Z,40.59
2023-01-17T20:56:42.771Z,40.46
2023-01-17T20:59:15.901Z,41.09
2023-01-17T21:01:45.919Z,41.53
2023-01-17T21:04:14.826Z,41.73
2023-01-17T21:06:44.370Z,41.98
2023-01-17T21:09:14.805Z,42.09
2023-01-17T21:11:42.941Z,42.03
2023-01-17T21:14:11.330Z,42.23
2023-01-17T21:16:42.135Z,41.74
2023-01-17T21:19:12.079Z,41.87
2023-01-17T21:21:40.503Z,41.55
2023-01-17T21:24:08.884Z,41.39
2023-01-17T21:26:39.044Z,40.91
2023-01-17T21:29:07.269Z,40.92
2023-01-17T21:31:36.925Z,41.24
2023-01-17T21:34:08.838Z,40.90
2023-01-17T21:36:38.872Z,39.93
2023-01-17T21:39:08.864Z,40.55
2023-01-17T21:41:38.898Z,40.12
2023-01-17T21:44:09.871Z,40.49
2023-01-17T21:46:39.173Z,40.75
2023-01-17T21:49:10.845Z,40.64
2023-01-17T21:51:57.141Z,40.79
2023-01-17T21:54:40.709Z,41.04
2023-01-17T21:57:26.540Z,41.04
2023-01-17T21:59:54.486Z,40.94
2023-01-17T22:02:22.797Z,41.12
2023-01-17T22:04:54.677Z,41.08
2023-01-17T22:07:22.797Z,41.09
2023-01-17T22:09:50.718Z,41.44
2023-01-17T22:12:18.816Z,41.59
2023-01-17T22:14:46.954Z,42.21
2023-01-17T22:17:14.909Z,41.88
2023-01-17T22:19:43.004Z,41.80
2023-01-17T22:22:12.335Z,41.55
2023-01-17T22:24:41.786Z,41.83
2023-01-17T22:27:10.764Z,42.21
2023-01-17T22:29:39.013Z,42.02
2023-01-17T22:32:07.403Z,42.14
2023-01-17T22:34:36.014Z,42.16
2023-01-17T22:37:04.796Z,42.63
2023-01-17T22:39:35.228Z,42.87
2023-01-17T22:42:03.567Z,42.54
2023-01-17T22:44:31.727Z,42.14
2023-01-17T22:46:59.695Z,42.13
2023-01-17T22:49:28.114Z,42.25
2023-01-17T22:51:56.118Z,42.08
2023-01-17T22:54:24.330Z,41.98
2023-01-17T22:56:54.203Z,42.06
2023-01-17T22:59:22.278Z,41.56
2023-01-17T23:01:50.375Z,42.14
2023-01-17T23:04:18.421Z,42.22
2023-01-17T23:06:46.358Z,42.16
2023-01-17T23:09:17.321Z,42.32
2023-01-17T23:11:49.753Z,42.55
2023-01-17T23:14:21.667Z,42.49
2023-01-17T23:17:09.204Z,42.65
2023-01-17T23:19:38.952Z,42.66
2023-01-17T23:22:19.469Z,42.36
2023-01-17T23:24:51.136Z,42.37
2023-01-17T23:27:39.498Z,42.44
2023-01-17T23:30:12.116Z,42.69
2023-01-17T23:32:40.797Z,42.43
2023-01-17T23:35:09.268Z,42.49
2023-01-17T23:37:54.561Z,42.17
2023-01-17T23:40:22.581Z,42.24
2023-01-17T23:43:07.794Z,42.36
2023-01-17T23:45:38.222Z,42.50
2023-01-17T23:48:09.673Z,42.42
2023-01-17T23:50:38.255Z,42.61
2023-01-17T23:53:08.397Z,42.68
2023-01-17T23:55:37.738Z,42.71
2023-01-17T23:58:06.065Z,42.57
